sensor_id;sensor_type;location;lat;lon;timestamp;P1;durP1;ratioP1;P2;durP2;ratioP2
70929;SDS011;58588;48.102;19.682;2022-11-20T00:01:51;42.28;;;13.82;;
70929;SDS011;58588;48.102;19.682;2022-11-20T00:04:53;38.40;;;13.70;;
70929;SDS011;58588;48.102;19.682;2022-11-20T00:07:56;37.57;;;13.63;;
70929;SDS011;58588;48.102;19.682;2022-11-20T00:11:01;38.88;;;12.68;;
70929;SDS011;58588;48.102;19.682;2022-11-20T00:14:04;41.25;;;14.23;;
70929;SDS011;58588;48.102;19.682;2022-11-20T00:17:06;41.92;;;13.68;;
70929;SDS011;58588;48.102;19.682;2022-11-20T00:20:09;41.95;;;13.85;;
70929;SDS011;58588;48.102;19.682;2022-11-20T00:23:13;38.23;;;11.87;;
70929;SDS011;58588;48.102;19.682;2022-11-20T00:26:16;37.17;;;13.05;;
70929;SDS011;58588;48.102;19.682;2022-11-20T00:29:19;37.60;;;12.85;;
70929;SDS011;58588;48.102;19.682;2022-11-20T00:32:21;42.58;;;14.45;;
70929;SDS011;58588;48.102;19.682;2022-11-20T00:35:23;42.72;;;14.40;;
70929;SDS011;58588;48.102;19.682;2022-11-20T00:38:26;45.47;;;14.23;;
70929;SDS011;58588;48.102;19.682;2022-11-20T00:41:28;38.83;;;14.20;;
70929;SDS011;58588;48.102;19.682;2022-11-20T00:44:31;38.40;;;13.20;;
70929;SDS011;58588;48.102;19.682;2022-11-20T00:47:33;44.25;;;13.35;;
70929;SDS011;58588;48.102;19.682;2022-11-20T00:50:35;44.20;;;13.02;;
70929;SDS011;58588;48.102;19.682;2022-11-20T00:53:38;37.03;;;13.13;;
70929;SDS011;58588;48.102;19.682;2022-11-20T00:56:40;37.88;;;12.80;;
70929;SDS011;58588;48.102;19.682;2022-11-20T00:59:42;35.42;;;12.80;;
70929;SDS011;58588;48.102;19.682;2022-11-20T01:02:44;36.75;;;12.30;;
70929;SDS011;58588;48.102;19.682;2022-11-20T01:05:46;40.63;;;13.75;;
70929;SDS011;58588;48.102;19.682;2022-11-20T01:08:52;32.97;;;11.83;;
70929;SDS011;58588;48.102;19.682;2022-11-20T01:11:55;30.95;;;11.75;;
70929;SDS011;58588;48.102;19.682;2022-11-20T01:14:57;32.33;;;11.50;;
70929;SDS011;58588;48.102;19.682;2022-11-20T01:17:59;34.22;;;12.10;;
70929;SDS011;58588;48.102;19.682;2022-11-20T01:21:01;34.63;;;12.02;;
70929;SDS011;58588;48.102;19.682;2022-11-20T01:24:07;30.10;;;11.37;;
70929;SDS011;58588;48.102;19.682;2022-11-20T01:27:11;36.40;;;12.35;;
70929;SDS011;58588;48.102;19.682;2022-11-20T01:30:13;34.17;;;12.07;;
70929;SDS011;58588;48.102;19.682;2022-11-20T01:33:15;32.50;;;12.38;;
70929;SDS011;58588;48.102;19.682;2022-11-20T01:36:17;34.92;;;13.00;;
70929;SDS011;58588;48.102;19.682;2022-11-20T01:39:22;35.47;;;12.20;;
70929;SDS011;58588;48.102;19.682;2022-11-20T01:42:25;35.08;;;12.13;;
70929;SDS011;58588;48.102;19.682;2022-11-20T01:49:16;31.92;;;11.38;;
70929;SDS011;58588;48.102;19.682;2022-11-20T01:52:21;33.08;;;11.43;;
70929;SDS011;58588;48.102;19.682;2022-11-20T01:55:29;29.17;;;11.20;;
70929;SDS011;58588;48.102;19.682;2022-11-20T01:58:35;34.40;;;12.13;;
70929;SDS011;58588;48.102;19.682;2022-11-20T02:01:39;35.15;;;11.13;;
70929;SDS011;58588;48.102;19.682;2022-11-20T02:04:41;30.10;;;11.60;;
70929;SDS011;58588;48.102;19.682;2022-11-20T02:07:43;33.72;;;11.77;;
70929;SDS011;58588;48.102;19.682;2022-11-20T02:10:48;35.03;;;11.53;;
70929;SDS011;58588;48.102;19.682;2022-11-20T02:13:50;30.30;;;11.30;;
70929;SDS011;58588;48.102;19.682;2022-11-20T02:16:52;34.22;;;12.70;;
70929;SDS011;58588;48.102;19.682;2022-11-20T02:20:01;28.92;;;11.18;;
70929;SDS011;58588;48.102;19.682;2022-11-20T02:23:03;30.15;;;10.95;;
70929;SDS011;58588;48.102;19.682;2022-11-20T02:26:11;34.60;;;12.50;;
70929;SDS011;58588;48.102;19.682;2022-11-20T02:29:16;37.67;;;12.73;;
70929;SDS011;58588;48.102;19.682;2022-11-20T02:32:21;34.70;;;12.48;;
70929;SDS011;58588;48.102;19.682;2022-11-20T02:35:41;37.28;;;11.88;;
70929;SDS011;58588;48.102;19.682;2022-11-20T02:38:45;34.38;;;12.75;;
70929;SDS011;58588;48.102;19.682;2022-11-20T02:41:48;31.83;;;11.80;;
70929;SDS011;58588;48.102;19.682;2022-11-20T02:44:51;31.42;;;11.90;;
70929;SDS011;58588;48.102;19.682;2022-11-20T02:47:53;31.88;;;12.82;;
70929;SDS011;58588;48.102;19.682;2022-11-20T02:50:54;32.63;;;12.52;;
70929;SDS011;58588;48.102;19.682;2022-11-20T02:53:56;32.22;;;12.43;;
70929;SDS011;58588;48.102;19.682;2022-11-20T02:57:00;41.43;;;13.40;;
70929;SDS011;58588;48.102;19.682;2022-11-20T03:00:02;36.20;;;11.90;;
70929;SDS011;58588;48.102;19.682;2022-11-20T03:03:06;38.47;;;13.32;;
70929;SDS011;58588;48.102;19.682;2022-11-20T03:06:08;36.63;;;12.55;;
70929;SDS011;58588;48.102;19.682;2022-11-20T03:09:10;37.95;;;12.80;;
70929;SDS011;58588;48.102;19.682;2022-11-20T03:12:14;36.40;;;13.60;;
70929;SDS011;58588;48.102;19.682;2022-11-20T03:15:16;38.88;;;12.95;;
70929;SDS011;58588;48.102;19.682;2022-11-20T03:18:18;48.15;;;15.55;;
70929;SDS011;58588;48.102;19.682;2022-11-20T03:21:20;36.95;;;13.38;;
70929;SDS011;58588;48.102;19.682;2022-11-20T03:24:24;36.50;;;12.25;;
70929;SDS011;58588;48.102;19.682;2022-11-20T03:27:28;34.10;;;11.43;;
70929;SDS011;58588;48.102;19.682;2022-11-20T03:30:35;33.22;;;11.82;;
70929;SDS011;58588;48.102;19.682;2022-11-20T03:33:37;33.63;;;11.27;;
70929;SDS011;58588;48.102;19.682;2022-11-20T03:36:40;27.20;;;9.98;;
70929;SDS011;58588;48.102;19.682;2022-11-20T03:39:42;29.98;;;10.68;;
70929;SDS011;58588;48.102;19.682;2022-11-20T03:42:46;33.93;;;11.40;;
70929;SDS011;58588;48.102;19.682;2022-11-20T03:45:48;27.55;;;10.02;;
70929;SDS011;58588;48.102;19.682;2022-11-20T03:48:50;29.65;;;10.40;;
70929;SDS011;58588;48.102;19.682;2022-11-20T03:51:52;29.35;;;10.98;;
70929;SDS011;58588;48.102;19.682;2022-11-20T03:54:54;31.60;;;11.07;;
70929;SDS011;58588;48.102;19.682;2022-11-20T03:57:58;31.20;;;10.93;;
70929;SDS011;58588;48.102;19.682;2022-11-20T04:01:04;38.22;;;11.85;;
70929;SDS011;58588;48.102;19.682;2022-11-20T04:04:07;31.15;;;11.07;;
70929;SDS011;58588;48.102;19.682;2022-11-20T04:07:09;33.20;;;12.07;;
70929;SDS011;58588;48.102;19.682;2022-11-20T04:10:11;31.48;;;11.18;;
70929;SDS011;58588;48.102;19.682;2022-11-20T04:13:14;32.77;;;11.37;;
70929;SDS011;58588;48.102;19.682;2022-11-20T04:16:17;29.55;;;9.70;;
70929;SDS011;58588;48.102;19.682;2022-11-20T04:19:19;28.98;;;11.02;;
70929;SDS011;58588;48.102;19.682;2022-11-20T04:22:21;30.15;;;11.02;;
70929;SDS011;58588;48.102;19.682;2022-11-20T04:25:23;30.40;;;11.02;;
70929;SDS011;58588;48.102;19.682;2022-11-20T04:28:26;33.03;;;11.13;;
70929;SDS011;58588;48.102;19.682;2022-11-20T04:31:28;32.35;;;11.70;;
70929;SDS011;58588;48.102;19.682;2022-11-20T04:34:32;29.25;;;10.95;;
70929;SDS011;58588;48.102;19.682;2022-11-20T04:37:34;28.48;;;10.30;;
70929;SDS011;58588;48.102;19.682;2022-11-20T04:40:36;29.17;;;11.30;;
70929;SDS011;58588;48.102;19.682;2022-11-20T04:43:41;29.87;;;10.37;;
70929;SDS011;58588;48.102;19.682;2022-11-20T04:46:47;31.33;;;10.13;;
70929;SDS011;58588;48.102;19.682;2022-11-20T04:49:49;29.30;;;9.90;;
70929;SDS011;58588;48.102;19.682;2022-11-20T04:52:51;30.85;;;10.25;;
70929;SDS011;58588;48.102;19.682;2022-11-20T04:55:58;29.98;;;9.77;;
70929;SDS011;58588;48.102;19.682;2022-11-20T04:59:02;27.27;;;9.27;;
70929;SDS011;58588;48.102;19.682;2022-11-20T05:02:04;28.42;;;10.10;;
70929;SDS011;58588;48.102;19.682;2022-11-20T05:05:06;31.33;;;11.93;;
70929;SDS011;58588;48.102;19.682;2022-11-20T05:08:09;34.65;;;12.52;;
70929;SDS011;58588;48.102;19.682;2022-11-20T05:11:11;31.35;;;11.57;;
70929;SDS011;58588;48.102;19.682;2022-11-20T05:14:16;29.63;;;10.60;;
70929;SDS011;58588;48.102;19.682;2022-11-20T05:17:18;28.35;;;10.07;;
70929;SDS011;58588;48.102;19.682;2022-11-20T05:20:20;29.80;;;10.95;;
70929;SDS011;58588;48.102;19.682;2022-11-20T05:23:22;31.58;;;10.65;;
70929;SDS011;58588;48.102;19.682;2022-11-20T05:26:24;34.85;;;13.80;;
70929;SDS011;58588;48.102;19.682;2022-11-20T05:29:27;37.70;;;12.63;;
70929;SDS011;58588;48.102;19.682;2022-11-20T05:32:29;39.15;;;12.07;;
70929;SDS011;58588;48.102;19.682;2022-11-20T05:35:31;30.83;;;11.07;;
70929;SDS011;58588;48.102;19.682;2022-11-20T05:38:33;35.03;;;12.00;;
70929;SDS011;58588;48.102;19.682;2022-11-20T05:41:35;34.30;;;12.32;;
70929;SDS011;58588;48.102;19.682;2022-11-20T05:44:38;30.07;;;10.50;;
70929;SDS011;58588;48.102;19.682;2022-11-20T05:47:40;32.83;;;10.60;;
70929;SDS011;58588;48.102;19.682;2022-11-20T05:50:42;53.55;;;22.80;;
70929;SDS011;58588;48.102;19.682;2022-11-20T05:53:44;39.22;;;15.23;;
70929;SDS011;58588;48.102;19.682;2022-11-20T05:56:47;35.72;;;13.10;;
70929;SDS011;58588;48.102;19.682;2022-11-20T05:59:50;35.90;;;13.00;;
70929;SDS011;58588;48.102;19.682;2022-11-20T06:02:52;34.40;;;12.70;;
70929;SDS011;58588;48.102;19.682;2022-11-20T06:05:54;33.17;;;12.30;;
70929;SDS011;58588;48.102;19.682;2022-11-20T06:08:56;35.28;;;12.45;;
70929;SDS011;58588;48.102;19.682;2022-11-20T06:12:01;36.33;;;13.05;;
70929;SDS011;58588;48.102;19.682;2022-11-20T06:15:05;33.97;;;11.87;;
70929;SDS011;58588;48.102;19.682;2022-11-20T06:18:08;34.47;;;12.80;;
70929;SDS011;58588;48.102;19.682;2022-11-20T06:21:11;37.08;;;13.43;;
70929;SDS011;58588;48.102;19.682;2022-11-20T06:24:14;41.72;;;14.65;;
70929;SDS011;58588;48.102;19.682;2022-11-20T06:27:16;35.60;;;14.68;;
70929;SDS011;58588;48.102;19.682;2022-11-20T06:30:20;33.60;;;13.50;;
70929;SDS011;58588;48.102;19.682;2022-11-20T06:33:22;35.65;;;13.50;;
70929;SDS011;58588;48.102;19.682;2022-11-20T06:36:24;37.22;;;14.63;;
70929;SDS011;58588;48.102;19.682;2022-11-20T06:39:26;37.80;;;13.85;;
70929;SDS011;58588;48.102;19.682;2022-11-20T06:42:28;33.03;;;13.30;;
70929;SDS011;58588;48.102;19.682;2022-11-20T06:45:31;34.93;;;13.10;;
70929;SDS011;58588;48.102;19.682;2022-11-20T06:48:33;30.60;;;12.77;;
70929;SDS011;58588;48.102;19.682;2022-11-20T06:51:35;33.58;;;12.48;;
70929;SDS011;58588;48.102;19.682;2022-11-20T06:54:37;36.63;;;13.20;;
70929;SDS011;58588;48.102;19.682;2022-11-20T06:57:39;32.35;;;12.00;;
70929;SDS011;58588;48.102;19.682;2022-11-20T07:00:42;29.33;;;10.93;;
70929;SDS011;58588;48.102;19.682;2022-11-20T07:03:44;29.60;;;10.82;;
70929;SDS011;58588;48.102;19.682;2022-11-20T07:06:46;29.63;;;11.32;;
70929;SDS011;58588;48.102;19.682;2022-11-20T07:09:49;29.98;;;11.68;;
70929;SDS011;58588;48.102;19.682;2022-11-20T07:12:51;30.40;;;11.02;;
70929;SDS011;58588;48.102;19.682;2022-11-20T07:15:58;33.60;;;11.57;;
70929;SDS011;58588;48.102;19.682;2022-11-20T07:19:01;34.70;;;11.20;;
70929;SDS011;58588;48.102;19.682;2022-11-20T07:22:03;33.63;;;11.45;;
70929;SDS011;58588;48.102;19.682;2022-11-20T07:25:05;29.95;;;10.88;;
70929;SDS011;58588;48.102;19.682;2022-11-20T07:28:08;32.58;;;11.48;;
70929;SDS011;58588;48.102;19.682;2022-11-20T07:31:12;28.57;;;9.73;;
70929;SDS011;58588;48.102;19.682;2022-11-20T07:34:14;29.25;;;9.75;;
70929;SDS011;58588;48.102;19.682;2022-11-20T07:37:16;30.77;;;11.10;;
70929;SDS011;58588;48.102;19.682;2022-11-20T07:40:18;30.95;;;11.68;;
70929;SDS011;58588;48.102;19.682;2022-11-20T07:43:21;27.40;;;9.63;;
70929;SDS011;58588;48.102;19.682;2022-11-20T07:46:24;28.40;;;10.40;;
70929;SDS011;58588;48.102;19.682;2022-11-20T07:49:29;26.08;;;10.13;;
70929;SDS011;58588;48.102;19.682;2022-11-20T07:52:31;30.50;;;10.48;;
70929;SDS011;58588;48.102;19.682;2022-11-20T07:55:37;31.15;;;10.70;;
70929;SDS011;58588;48.102;19.682;2022-11-20T07:58:44;29.58;;;11.05;;
70929;SDS011;58588;48.102;19.682;2022-11-20T08:01:48;31.83;;;11.83;;
70929;SDS011;58588;48.102;19.682;2022-11-20T08:04:50;33.65;;;11.05;;
70929;SDS011;58588;48.102;19.682;2022-11-20T08:07:52;34.33;;;12.55;;
70929;SDS011;58588;48.102;19.682;2022-11-20T08:10:56;29.48;;;11.50;;
70929;SDS011;58588;48.102;19.682;2022-11-20T08:14:18;33.72;;;11.00;;
70929;SDS011;58588;48.102;19.682;2022-11-20T08:17:20;28.13;;;10.13;;
70929;SDS011;58588;48.102;19.682;2022-11-20T08:20:22;29.60;;;10.65;;
70929;SDS011;58588;48.102;19.682;2022-11-20T08:23:24;31.05;;;10.80;;
70929;SDS011;58588;48.102;19.682;2022-11-20T08:26:26;27.38;;;9.27;;
70929;SDS011;58588;48.102;19.682;2022-11-20T08:29:29;26.90;;;10.23;;
70929;SDS011;58588;48.102;19.682;2022-11-20T08:32:32;28.08;;;9.60;;
70929;SDS011;58588;48.102;19.682;2022-11-20T08:35:36;27.48;;;10.00;;
70929;SDS011;58588;48.102;19.682;2022-11-20T08:38:38;25.48;;;9.27;;
70929;SDS011;58588;48.102;19.682;2022-11-20T08:41:40;27.48;;;10.15;;
70929;SDS011;58588;48.102;19.682;2022-11-20T08:44:42;26.37;;;9.80;;
70929;SDS011;58588;48.102;19.682;2022-11-20T08:47:46;30.52;;;12.75;;
70929;SDS011;58588;48.102;19.682;2022-11-20T08:50:48;29.80;;;10.68;;
70929;SDS011;58588;48.102;19.682;2022-11-20T08:53:50;31.00;;;11.07;;
70929;SDS011;58588;48.102;19.682;2022-11-20T08:56:52;27.77;;;10.98;;
70929;SDS011;58588;48.102;19.682;2022-11-20T08:59:54;32.53;;;11.33;;
70929;SDS011;58588;48.102;19.682;2022-11-20T09:02:57;26.02;;;8.38;;
70929;SDS011;58588;48.102;19.682;2022-11-20T09:06:01;29.85;;;10.77;;
70929;SDS011;58588;48.102;19.682;2022-11-20T09:09:05;32.28;;;12.23;;
70929;SDS011;58588;48.102;19.682;2022-11-20T09:12:07;32.83;;;12.40;;
70929;SDS011;58588;48.102;19.682;2022-11-20T09:15:09;36.73;;;13.63;;
70929;SDS011;58588;48.102;19.682;2022-11-20T09:18:13;37.45;;;14.82;;
70929;SDS011;58588;48.102;19.682;2022-11-20T09:21:15;37.00;;;13.90;;
70929;SDS011;58588;48.102;19.682;2022-11-20T09:24:17;35.85;;;14.32;;
70929;SDS011;58588;48.102;19.682;2022-11-20T09:27:20;42.38;;;15.48;;
70929;SDS011;58588;48.102;19.682;2022-11-20T09:30:22;37.67;;;15.00;;
70929;SDS011;58588;48.102;19.682;2022-11-20T09:33:26;37.75;;;15.18;;
70929;SDS011;58588;48.102;19.682;2022-11-20T09:36:28;39.75;;;15.13;;
70929;SDS011;58588;48.102;19.682;2022-11-20T09:39:30;39.13;;;14.63;;
70929;SDS011;58588;48.102;19.682;2022-11-20T09:42:33;39.95;;;13.98;;
70929;SDS011;58588;48.102;19.682;2022-11-20T09:45:48;37.33;;;13.07;;
70929;SDS011;58588;48.102;19.682;2022-11-20T09:49:13;30.40;;;11.83;;
70929;SDS011;58588;48.102;19.682;2022-11-20T09:52:27;30.63;;;11.13;;
70929;SDS011;58588;48.102;19.682;2022-11-20T09:55:37;28.35;;;10.38;;
70929;SDS011;58588;48.102;19.682;2022-11-20T09:58:41;32.10;;;11.43;;
70929;SDS011;58588;48.102;19.682;2022-11-20T10:01:46;29.37;;;11.47;;
70929;SDS011;58588;48.102;19.682;2022-11-20T10:04:51;28.67;;;10.40;;
70929;SDS011;58588;48.102;19.682;2022-11-20T10:08:02;28.52;;;9.98;;
70929;SDS011;58588;48.102;19.682;2022-11-20T10:11:15;32.58;;;10.45;;
70929;SDS011;58588;48.102;19.682;2022-11-20T10:14:26;29.38;;;10.57;;
70929;SDS011;58588;48.102;19.682;2022-11-20T10:21:12;33.93;;;13.30;;
70929;SDS011;58588;48.102;19.682;2022-11-20T10:27:53;90.32;;;29.90;;
70929;SDS011;58588;48.102;19.682;2022-11-20T10:31:14;39.92;;;15.07;;
70929;SDS011;58588;48.102;19.682;2022-11-20T10:34:27;33.87;;;13.27;;
70929;SDS011;58588;48.102;19.682;2022-11-20T10:37:34;37.40;;;15.20;;
70929;SDS011;58588;48.102;19.682;2022-11-20T10:40:40;33.03;;;12.73;;
70929;SDS011;58588;48.102;19.682;2022-11-20T10:43:44;28.73;;;11.85;;
70929;SDS011;58588;48.102;19.682;2022-11-20T10:46:47;72.20;;;31.48;;
70929;SDS011;58588;48.102;19.682;2022-11-20T10:49:55;33.37;;;12.67;;
70929;SDS011;58588;48.102;19.682;2022-11-20T10:53:08;28.20;;;11.07;;
70929;SDS011;58588;48.102;19.682;2022-11-20T10:56:21;31.98;;;12.68;;
70929;SDS011;58588;48.102;19.682;2022-11-20T10:59:34;26.90;;;10.52;;
70929;SDS011;58588;48.102;19.682;2022-11-20T11:02:43;30.98;;;13.32;;
70929;SDS011;58588;48.102;19.682;2022-11-20T11:05:49;30.23;;;12.13;;
70929;SDS011;58588;48.102;19.682;2022-11-20T11:08:58;29.03;;;10.90;;
70929;SDS011;58588;48.102;19.682;2022-11-20T11:12:06;35.72;;;14.93;;
70929;SDS011;58588;48.102;19.682;2022-11-20T11:15:11;29.35;;;11.32;;
70929;SDS011;58588;48.102;19.682;2022-11-20T11:18:25;33.78;;;13.68;;
70929;SDS011;58588;48.102;19.682;2022-11-20T11:21:28;26.73;;;10.83;;
70929;SDS011;58588;48.102;19.682;2022-11-20T11:24:32;28.97;;;12.67;;
70929;SDS011;58588;48.102;19.682;2022-11-20T11:27:34;25.92;;;10.75;;
70929;SDS011;58588;48.102;19.682;2022-11-20T11:30:41;26.58;;;10.77;;
70929;SDS011;58588;48.102;19.682;2022-11-20T11:33:44;28.48;;;10.68;;
70929;SDS011;58588;48.102;19.682;2022-11-20T11:36:49;27.90;;;10.40;;
70929;SDS011;58588;48.102;19.682;2022-11-20T11:39:59;25.73;;;9.30;;
70929;SDS011;58588;48.102;19.682;2022-11-20T11:43:01;28.35;;;9.52;;
70929;SDS011;58588;48.102;19.682;2022-11-20T11:46:30;25.55;;;9.15;;
70929;SDS011;58588;48.102;19.682;2022-11-20T11:49:32;25.20;;;9.57;;
70929;SDS011;58588;48.102;19.682;2022-11-20T11:52:35;26.83;;;10.27;;
70929;SDS011;58588;48.102;19.682;2022-11-20T11:55:44;24.20;;;9.43;;
70929;SDS011;58588;48.102;19.682;2022-11-20T11:58:51;30.15;;;10.32;;
70929;SDS011;58588;48.102;19.682;2022-11-20T12:01:56;28.63;;;9.98;;
70929;SDS011;58588;48.102;19.682;2022-11-20T12:05:03;27.58;;;10.60;;
70929;SDS011;58588;48.102;19.682;2022-11-20T12:08:15;29.67;;;10.73;;
70929;SDS011;58588;48.102;19.682;2022-11-20T12:11:29;29.93;;;11.37;;
70929;SDS011;58588;48.102;19.682;2022-11-20T12:14:35;27.20;;;10.30;;
70929;SDS011;58588;48.102;19.682;2022-11-20T12:17:40;28.05;;;10.75;;
70929;SDS011;58588;48.102;19.682;2022-11-20T12:20:45;29.58;;;11.65;;
70929;SDS011;58588;48.102;19.682;2022-11-20T12:24:00;26.23;;;10.67;;
70929;SDS011;58588;48.102;19.682;2022-11-20T12:27:31;27.47;;;10.67;;
70929;SDS011;58588;48.102;19.682;2022-11-20T12:30:48;27.98;;;10.73;;
70929;SDS011;58588;48.102;19.682;2022-11-20T12:34:04;30.77;;;11.38;;
70929;SDS011;58588;48.102;19.682;2022-11-20T12:37:22;29.25;;;11.45;;
70929;SDS011;58588;48.102;19.682;2022-11-20T12:40:35;28.90;;;11.20;;
70929;SDS011;58588;48.102;19.682;2022-11-20T12:43:48;27.97;;;11.00;;
70929;SDS011;58588;48.102;19.682;2022-11-20T12:47:19;29.98;;;11.38;;
70929;SDS011;58588;48.102;19.682;2022-11-20T12:50:34;30.45;;;11.73;;
70929;SDS011;58588;48.102;19.682;2022-11-20T12:53:46;29.98;;;12.07;;
70929;SDS011;58588;48.102;19.682;2022-11-20T12:56:59;27.60;;;10.90;;
70929;SDS011;58588;48.102;19.682;2022-11-20T13:00:11;31.13;;;11.87;;
70929;SDS011;58588;48.102;19.682;2022-11-20T13:03:26;31.63;;;12.00;;
70929;SDS011;58588;48.102;19.682;2022-11-20T13:06:40;32.78;;;12.23;;
70929;SDS011;58588;48.102;19.682;2022-11-20T13:09:43;32.33;;;11.85;;
70929;SDS011;58588;48.102;19.682;2022-11-20T13:12:49;33.43;;;11.60;;
70929;SDS011;58588;48.102;19.682;2022-11-20T13:16:02;32.80;;;12.23;;
70929;SDS011;58588;48.102;19.682;2022-11-20T13:19:13;30.55;;;11.30;;
70929;SDS011;58588;48.102;19.682;2022-11-20T13:22:23;36.20;;;13.88;;
70929;SDS011;58588;48.102;19.682;2022-11-20T13:25:28;34.75;;;13.98;;
70929;SDS011;58588;48.102;19.682;2022-11-20T13:28:31;31.30;;;12.17;;
70929;SDS011;58588;48.102;19.682;2022-11-20T13:31:38;35.83;;;12.33;;
70929;SDS011;58588;48.102;19.682;2022-11-20T13:34:51;30.13;;;11.23;;
70929;SDS011;58588;48.102;19.682;2022-11-20T13:38:01;35.35;;;12.38;;
70929;SDS011;58588;48.102;19.682;2022-11-20T13:41:07;31.88;;;12.00;;
70929;SDS011;58588;48.102;19.682;2022-11-20T13:44:25;33.03;;;12.33;;
70929;SDS011;58588;48.102;19.682;2022-11-20T13:47:31;33.40;;;12.13;;
70929;SDS011;58588;48.102;19.682;2022-11-20T13:50:40;33.05;;;12.13;;
70929;SDS011;58588;48.102;19.682;2022-11-20T13:57:41;43.00;;;14.63;;
70929;SDS011;58588;48.102;19.682;2022-11-20T14:00:55;87.90;;;22.30;;
70929;SDS011;58588;48.102;19.682;2022-11-20T14:04:07;44.63;;;13.90;;
70929;SDS011;58588;48.102;19.682;2022-11-20T14:07:10;47.85;;;17.50;;
70929;SDS011;58588;48.102;19.682;2022-11-20T14:10:19;39.22;;;14.23;;
70929;SDS011;58588;48.102;19.682;2022-11-20T14:13:22;34.45;;;12.43;;
70929;SDS011;58588;48.102;19.682;2022-11-20T14:16:25;35.57;;;12.93;;
70929;SDS011;58588;48.102;19.682;2022-11-20T14:19:29;34.90;;;13.67;;
70929;SDS011;58588;48.102;19.682;2022-11-20T14:22:32;43.13;;;14.52;;
70929;SDS011;58588;48.102;19.682;2022-11-20T14:25:37;35.08;;;12.30;;
70929;SDS011;58588;48.102;19.682;2022-11-20T14:28:47;36.95;;;12.38;;
70929;SDS011;58588;48.102;19.682;2022-11-20T14:31:52;32.93;;;12.23;;
70929;SDS011;58588;48.102;19.682;2022-11-20T14:34:57;35.90;;;13.10;;
70929;SDS011;58588;48.102;19.682;2022-11-20T14:38:08;37.35;;;13.48;;
70929;SDS011;58588;48.102;19.682;2022-11-20T14:41:16;42.00;;;12.63;;
70929;SDS011;58588;48.102;19.682;2022-11-20T14:44:19;35.63;;;12.93;;
70929;SDS011;58588;48.102;19.682;2022-11-20T14:47:27;34.95;;;12.75;;
70929;SDS011;58588;48.102;19.682;2022-11-20T14:50:32;34.83;;;12.23;;
70929;SDS011;58588;48.102;19.682;2022-11-20T14:53:35;37.28;;;14.60;;
70929;SDS011;58588;48.102;19.682;2022-11-20T14:56:38;55.63;;;20.30;;
70929;SDS011;58588;48.102;19.682;2022-11-20T14:59:41;41.50;;;14.07;;
70929;SDS011;58588;48.102;19.682;2022-11-20T15:02:44;41.97;;;13.95;;
70929;SDS011;58588;48.102;19.682;2022-11-20T15:05:50;46.97;;;16.10;;
70929;SDS011;58588;48.102;19.682;2022-11-20T15:08:53;41.58;;;14.20;;
70929;SDS011;58588;48.102;19.682;2022-11-20T15:11:55;38.88;;;13.82;;
70929;SDS011;58588;48.102;19.682;2022-11-20T15:15:00;45.38;;;16.40;;
70929;SDS011;58588;48.102;19.682;2022-11-20T15:18:03;50.97;;;18.35;;
70929;SDS011;58588;48.102;19.682;2022-11-20T15:21:10;54.13;;;21.30;;
70929;SDS011;58588;48.102;19.682;2022-11-20T15:24:13;55.47;;;22.73;;
70929;SDS011;58588;48.102;19.682;2022-11-20T15:27:15;56.22;;;22.13;;
70929;SDS011;58588;48.102;19.682;2022-11-20T15:30:18;74.85;;;29.65;;
70929;SDS011;58588;48.102;19.682;2022-11-20T15:33:21;74.90;;;22.63;;
70929;SDS011;58588;48.102;19.682;2022-11-20T15:36:25;51.93;;;22.10;;
70929;SDS011;58588;48.102;19.682;2022-11-20T15:39:27;58.15;;;22.05;;
70929;SDS011;58588;48.102;19.682;2022-11-20T15:42:29;53.03;;;20.83;;
70929;SDS011;58588;48.102;19.682;2022-11-20T15:45:33;77.40;;;33.08;;
70929;SDS011;58588;48.102;19.682;2022-11-20T15:48:40;55.70;;;24.30;;
70929;SDS011;58588;48.102;19.682;2022-11-20T15:51:49;59.73;;;24.03;;
70929;SDS011;58588;48.102;19.682;2022-11-20T15:54:52;48.17;;;19.92;;
70929;SDS011;58588;48.102;19.682;2022-11-20T15:57:54;43.03;;;16.30;;
70929;SDS011;58588;48.102;19.682;2022-11-20T16:00:56;137.95;;;37.33;;
70929;SDS011;58588;48.102;19.682;2022-11-20T16:03:58;358.45;;;101.45;;
70929;SDS011;58588;48.102;19.682;2022-11-20T16:07:02;152.40;;;46.30;;
70929;SDS011;58588;48.102;19.682;2022-11-20T16:10:05;150.23;;;44.75;;
70929;SDS011;58588;48.102;19.682;2022-11-20T16:13:11;108.70;;;35.90;;
70929;SDS011;58588;48.102;19.682;2022-11-20T16:16:32;86.35;;;30.85;;
70929;SDS011;58588;48.102;19.682;2022-11-20T16:19:36;132.43;;;40.63;;
70929;SDS011;58588;48.102;19.682;2022-11-20T16:22:39;128.57;;;38.83;;
70929;SDS011;58588;48.102;19.682;2022-11-20T16:25:41;154.18;;;44.22;;
70929;SDS011;58588;48.102;19.682;2022-11-20T16:28:45;274.77;;;78.97;;
70929;SDS011;58588;48.102;19.682;2022-11-20T16:31:47;210.02;;;60.88;;
70929;SDS011;58588;48.102;19.682;2022-11-20T16:34:49;104.93;;;33.25;;
70929;SDS011;58588;48.102;19.682;2022-11-20T16:37:54;142.67;;;44.50;;
70929;SDS011;58588;48.102;19.682;2022-11-20T16:40:59;77.45;;;27.85;;
70929;SDS011;58588;48.102;19.682;2022-11-20T16:44:02;72.88;;;27.38;;
70929;SDS011;58588;48.102;19.682;2022-11-20T16:47:09;135.20;;;43.05;;
70929;SDS011;58588;48.102;19.682;2022-11-20T16:50:11;78.75;;;29.52;;
70929;SDS011;58588;48.102;19.682;2022-11-20T16:53:16;55.87;;;21.87;;
70929;SDS011;58588;48.102;19.682;2022-11-20T16:56:19;63.05;;;22.98;;
70929;SDS011;58588;48.102;19.682;2022-11-20T16:59:22;73.55;;;26.58;;
70929;SDS011;58588;48.102;19.682;2022-11-20T17:02:24;61.78;;;20.77;;
70929;SDS011;58588;48.102;19.682;2022-11-20T17:05:28;126.75;;;44.35;;
70929;SDS011;58588;48.102;19.682;2022-11-20T17:08:31;64.40;;;25.57;;
70929;SDS011;58588;48.102;19.682;2022-11-20T17:11:33;67.43;;;25.00;;
70929;SDS011;58588;48.102;19.682;2022-11-20T17:14:36;60.92;;;24.60;;
70929;SDS011;58588;48.102;19.682;2022-11-20T17:17:38;83.88;;;32.15;;
70929;SDS011;58588;48.102;19.682;2022-11-20T17:20:41;75.90;;;30.30;;
70929;SDS011;58588;48.102;19.682;2022-11-20T17:23:53;56.40;;;23.73;;
70929;SDS011;58588;48.102;19.682;2022-11-20T17:26:55;73.18;;;26.75;;
70929;SDS011;58588;48.102;19.682;2022-11-20T17:29:57;106.05;;;37.58;;
70929;SDS011;58588;48.102;19.682;2022-11-20T17:32:59;84.03;;;31.77;;
70929;SDS011;58588;48.102;19.682;2022-11-20T17:36:01;77.35;;;29.10;;
70929;SDS011;58588;48.102;19.682;2022-11-20T17:39:05;81.27;;;31.07;;
70929;SDS011;58588;48.102;19.682;2022-11-20T17:42:07;56.92;;;21.55;;
70929;SDS011;58588;48.102;19.682;2022-11-20T17:45:28;57.55;;;21.17;;
70929;SDS011;58588;48.102;19.682;2022-11-20T17:48:30;58.72;;;23.13;;
70929;SDS011;58588;48.102;19.682;2022-11-20T17:51:33;72.15;;;26.58;;
70929;SDS011;58588;48.102;19.682;2022-11-20T17:54:37;69.07;;;30.47;;
70929;SDS011;58588;48.102;19.682;2022-11-20T17:57:39;84.03;;;34.65;;
70929;SDS011;58588;48.102;19.682;2022-11-20T18:00:52;72.47;;;27.95;;